createdAt,value
2018-07-14T00:00:44.270Z,9.00
2018-07-14T00:03:24.961Z,9.10
2018-07-14T00:06:05.561Z,10.20
2018-07-14T00:08:33.765Z,9.43
2018-07-14T00:11:13.978Z,8.95
2018-07-14T00:13:42.180Z,8.75
2018-07-14T00:16:22.511Z,9.78
2018-07-14T00:19:03.071Z,10.08
2018-07-14T00:21:38.432Z,9.10
2018-07-14T00:24:18.550Z,9.35
2018-07-14T00:26:59.140Z,10.10
2018-07-14T00:29:39.733Z,10.28
2018-07-14T00:32:07.977Z,11.20
2018-07-14T00:34:36.158Z,11.00
2018-07-14T00:37:17.076Z,10.27
2018-07-14T00:39:57.670Z,11.43
2018-07-14T00:42:38.192Z,11.08
2018-07-14T00:45:06.428Z,11.12
2018-07-14T00:47:46.690Z,11.85
2018-07-14T00:50:27.331Z,11.68
2018-07-14T00:53:07.974Z,12.53
2018-07-14T00:55:36.152Z,12.20
2018-07-14T00:58:11.633Z,11.45
2018-07-14T01:00:39.858Z,12.20
2018-07-14T01:03:20.013Z,11.38
2018-07-14T01:05:48.236Z,11.70
2018-07-14T01:08:18.047Z,12.28
2018-07-14T01:10:58.339Z,12.50
2018-07-14T01:13:26.547Z,11.93
2018-07-14T01:16:06.992Z,11.00
2018-07-14T01:18:47.876Z,11.73
2018-07-14T01:21:16.083Z,12.20
2018-07-14T01:23:44.321Z,11.80
2018-07-14T01:26:15.531Z,11.55
2018-07-14T01:28:43.737Z,10.90
2018-07-14T01:31:24.477Z,11.55
2018-07-14T01:34:05.116Z,12.25
2018-07-14T01:36:45.588Z,10.85
2018-07-14T01:39:13.784Z,11.60
2018-07-14T01:41:54.273Z,11.97
2018-07-14T01:44:34.953Z,12.20
2018-07-14T01:47:15.570Z,11.90
2018-07-14T01:49:43.775Z,11.50
2018-07-14T01:52:24.008Z,13.68
2018-07-14T01:55:04.566Z,12.15
2018-07-14T01:57:45.200Z,11.85
2018-07-14T02:00:25.256Z,11.75
2018-07-14T02:02:53.481Z,10.90
2018-07-14T02:05:21.702Z,11.87
2018-07-14T02:07:49.908Z,11.70
2018-07-14T02:10:30.499Z,13.23
2018-07-14T02:12:58.728Z,13.35
2018-07-14T02:15:26.924Z,12.10
2018-07-14T02:18:07.747Z,12.78
2018-07-14T02:20:48.427Z,12.07
2018-07-14T02:23:18.673Z,12.33
2018-07-14T02:25:58.878Z,12.80
2018-07-14T02:28:28.429Z,12.43
2018-07-14T02:30:56.723Z,12.28
2018-07-14T02:33:37.886Z,11.93
2018-07-14T02:36:18.893Z,14.30
2018-07-14T02:38:59.757Z,12.07
2018-07-14T02:41:40.174Z,13.40
2018-07-14T02:44:08.374Z,13.20
2018-07-14T02:46:48.613Z,12.85
2018-07-14T02:49:16.819Z,11.25
2018-07-14T02:51:45.026Z,12.90
2018-07-14T02:54:13.218Z,11.60
2018-07-14T02:56:41.477Z,12.47
2018-07-14T02:59:22.387Z,13.70
2018-07-14T03:02:03.005Z,12.80
2018-07-14T03:04:43.766Z,12.45
2018-07-14T03:07:24.356Z,12.98
2018-07-14T03:10:05.003Z,12.85
2018-07-14T03:12:45.698Z,15.48
2018-07-14T03:15:26.234Z,14.07
2018-07-14T03:17:54.440Z,13.10
2018-07-14T03:20:32.049Z,13.48
2018-07-14T03:23:00.248Z,14.13
2018-07-14T03:25:29.269Z,14.00
2018-07-14T03:27:59.082Z,14.03
2018-07-14T03:30:39.283Z,13.93
2018-07-14T03:33:07.481Z,13.40
2018-07-14T03:35:35.745Z,13.18
2018-07-14T03:38:16.630Z,14.45
2018-07-14T03:40:45.942Z,13.55
2018-07-14T03:43:15.008Z,13.60
2018-07-14T03:45:43.177Z,14.68
2018-07-14T03:48:13.586Z,13.93
2018-07-14T03:50:42.501Z,16.65
2018-07-14T03:53:17.201Z,15.25
2018-07-14T03:55:57.309Z,15.23
2018-07-14T03:58:32.029Z,15.08
2018-07-14T04:01:12.762Z,13.85
2018-07-14T04:03:40.968Z,14.55
2018-07-14T04:06:13.150Z,15.03
2018-07-14T04:08:53.301Z,14.63
2018-07-14T04:11:25.022Z,15.75
2018-07-14T04:13:53.793Z,14.80
2018-07-14T04:16:34.425Z,14.13
2018-07-14T04:19:15.068Z,16.27
2018-07-14T04:21:55.701Z,14.58
2018-07-14T04:24:36.322Z,15.63
2018-07-14T04:27:16.934Z,16.12
2018-07-14T04:29:45.143Z,16.97
2018-07-14T04:32:25.717Z,14.90
2018-07-14T04:35:06.336Z,15.55
2018-07-14T04:37:46.971Z,14.78
2018-07-14T04:40:27.653Z,16.52
2018-07-14T04:42:55.874Z,16.00
2018-07-14T04:45:24.122Z,14.98
2018-07-14T04:47:55.974Z,14.80
2018-07-14T04:50:24.854Z,15.75
2018-07-14T04:53:05.296Z,19.10
2018-07-14T04:55:33.504Z,16.85
2018-07-14T04:58:06.469Z,16.42
2018-07-14T05:00:35.243Z,16.10
2018-07-14T05:03:15.576Z,17.00
2018-07-14T05:05:43.761Z,16.52
2018-07-14T05:08:24.127Z,16.95
2018-07-14T05:10:52.370Z,16.73
2018-07-14T05:13:32.478Z,17.10
2018-07-14T05:16:01.434Z,15.38
2018-07-14T05:18:33.435Z,15.35
2018-07-14T05:21:01.647Z,16.57
2018-07-14T05:23:31.097Z,16.23
2018-07-14T05:25:59.438Z,15.50
2018-07-14T05:28:40.032Z,17.57
2018-07-14T05:31:08.205Z,16.45
2018-07-14T05:33:37.195Z,15.88
2018-07-14T05:36:17.410Z,16.73
2018-07-14T05:38:58.143Z,16.90
2018-07-14T05:41:38.776Z,17.27
2018-07-14T05:44:19.585Z,16.75
2018-07-14T05:47:00.174Z,15.72
2018-07-14T05:49:40.786Z,15.77
2018-07-14T05:52:21.714Z,16.57
2018-07-14T05:55:02.126Z,15.70
2018-07-14T05:57:30.392Z,15.90
2018-07-14T06:00:10.517Z,16.07
2018-07-14T06:02:51.174Z,15.60
2018-07-14T06:05:31.861Z,16.15
2018-07-14T06:08:02.200Z,15.08
2018-07-14T06:10:30.494Z,17.65
2018-07-14T06:13:11.191Z,17.57
2018-07-14T06:15:51.693Z,16.27
2018-07-14T06:18:32.442Z,16.10
2018-07-14T06:21:00.635Z,16.35
2018-07-14T06:23:40.862Z,16.75
2018-07-14T06:26:21.557Z,15.00
2018-07-14T06:29:02.346Z,16.10
2018-07-14T06:31:33.885Z,17.15
2018-07-14T06:34:02.779Z,16.97
2018-07-14T06:36:43.460Z,17.77
2018-07-14T06:39:24.114Z,15.90
2018-07-14T06:42:04.939Z,16.90
2018-07-14T06:44:33.141Z,16.52
2018-07-14T06:47:03.112Z,16.37
2018-07-14T06:49:31.418Z,15.20
2018-07-14T06:52:12.212Z,15.85
2018-07-14T06:54:52.797Z,16.25
2018-07-14T06:57:21.015Z,14.30
2018-07-14T06:59:49.264Z,16.05
2018-07-14T07:02:30.079Z,15.40
2018-07-14T07:04:58.305Z,16.70
2018-07-14T07:07:29.130Z,15.10
2018-07-14T07:10:09.237Z,16.02
2018-07-14T07:12:37.727Z,14.90
2018-07-14T07:15:18.780Z,13.88
2018-07-14T07:17:47.033Z,15.32
2018-07-14T07:20:15.311Z,14.80
2018-07-14T07:22:56.069Z,15.95
2018-07-14T07:25:26.441Z,13.70
2018-07-14T07:27:54.679Z,14.73
2018-07-14T07:30:29.689Z,14.47
2018-07-14T07:32:58.132Z,14.90
2018-07-14T07:35:26.325Z,14.75
2018-07-14T07:38:08.394Z,14.75
2018-07-14T07:40:36.625Z,13.98
2018-07-14T07:43:17.598Z,14.55
2018-07-14T07:45:58.327Z,15.83
2018-07-14T07:48:38.944Z,15.80
2018-07-14T07:51:19.531Z,14.95
2018-07-14T07:54:00.246Z,15.68
2018-07-14T07:56:28.453Z,15.18
2018-07-14T07:59:09.042Z,14.73
2018-07-14T08:01:37.280Z,14.45
2018-07-14T08:04:17.536Z,16.80
2018-07-14T08:06:58.285Z,14.45
2018-07-14T08:09:39.202Z,14.23
2018-07-14T08:12:07.417Z,14.00
2018-07-14T08:14:48.249Z,15.68
2018-07-14T08:17:28.913Z,15.93
2018-07-14T08:20:09.471Z,13.72
2018-07-14T08:22:50.463Z,15.48
2018-07-14T08:25:31.301Z,13.10
2018-07-14T08:28:00.189Z,13.40
2018-07-14T08:30:40.370Z,12.25
2018-07-14T08:33:20.967Z,12.75
2018-07-14T08:36:01.731Z,13.15
2018-07-14T08:38:42.614Z,13.30
2018-07-14T08:41:10.908Z,11.63
2018-07-14T08:43:39.272Z,12.63
2018-07-14T08:46:19.774Z,12.57
2018-07-14T08:49:00.474Z,13.13
2018-07-14T08:51:29.431Z,11.57
2018-07-14T08:54:10.873Z,11.00
2018-07-14T08:56:39.172Z,10.40
2018-07-14T08:59:13.565Z,12.82
2018-07-14T09:01:54.083Z,11.08
2018-07-14T09:04:26.542Z,9.95
2018-07-14T09:06:56.528Z,11.00
2018-07-14T09:09:24.812Z,10.80
2018-07-14T09:12:05.447Z,11.38
2018-07-14T09:14:46.119Z,13.07
2018-07-14T09:17:14.548Z,11.15
2018-07-14T09:19:55.323Z,10.28
2018-07-14T09:22:36.590Z,10.28
2018-07-14T09:25:05.150Z,10.45
2018-07-14T09:27:45.723Z,10.40
2018-07-14T09:30:26.329Z,9.47
2018-07-14T09:33:07.048Z,10.20
2018-07-14T09:35:47.778Z,11.30
2018-07-14T09:38:28.428Z,11.18
2018-07-14T09:41:00.272Z,13.97
2018-07-14T09:43:28.626Z,12.05
2018-07-14T09:45:56.920Z,10.35
2018-07-14T09:48:37.795Z,10.23
2018-07-14T09:51:18.465Z,10.18
2018-07-14T09:53:46.794Z,10.47
2018-07-14T09:56:15.095Z,10.50
2018-07-14T09:58:55.740Z,10.80
2018-07-14T10:01:36.571Z,9.28
2018-07-14T10:04:17.115Z,9.70
2018-07-14T10:06:58.132Z,9.20
2018-07-14T10:09:38.777Z,8.78
2018-07-14T10:12:07.230Z,8.90
2018-07-14T10:14:48.048Z,8.68
2018-07-14T10:17:16.305Z,8.40
2018-07-14T10:19:56.528Z,8.43
2018-07-14T10:22:24.758Z,8.15
2018-07-14T10:25:04.938Z,8.58
2018-07-14T10:27:36.145Z,7.95
2018-07-14T10:30:16.386Z,8.95
2018-07-14T10:32:44.761Z,9.13
2018-07-14T10:35:24.959Z,9.18
2018-07-14T10:37:53.184Z,8.30
2018-07-14T10:40:21.380Z,8.80
2018-07-14T10:43:02.357Z,7.83
2018-07-14T10:45:43.016Z,8.40
2018-07-14T10:48:11.726Z,7.80
2018-07-14T10:50:40.080Z,7.80
2018-07-14T10:53:10.003Z,8.13
2018-07-14T10:55:51.015Z,7.15
2018-07-14T10:58:19.307Z,7.70
2018-07-14T11:00:55.953Z,7.72
2018-07-14T11:03:25.810Z,6.83
2018-07-14T11:05:54.022Z,9.08
2018-07-14T11:08:22.812Z,8.50
2018-07-14T11:11:03.521Z,7.80
2018-07-14T11:13:31.745Z,7.10
2018-07-14T11:16:12.781Z,6.90
2018-07-14T11:18:53.467Z,7.25
2018-07-14T11:21:22.556Z,6.90
2018-07-14T11:24:02.925Z,6.08
2018-07-14T11:26:43.504Z,5.72
2018-07-14T11:29:11.768Z,6.33
2018-07-14T11:31:39.916Z,6.60
2018-07-14T11:34:20.600Z,6.72
2018-07-14T11:37:01.327Z,6.75
2018-07-14T11:39:42.137Z,6.17
2018-07-14T11:42:10.397Z,5.90
2018-07-14T11:44:38.687Z,5.15
2018-07-14T11:47:07.012Z,5.72
2018-07-14T11:49:35.171Z,5.25
2018-07-14T11:52:15.400Z,5.05
2018-07-14T11:54:55.901Z,6.40
2018-07-14T11:57:36.534Z,5.80
2018-07-14T12:00:17.113Z,5.87
2018-07-14T12:02:58.578Z,6.35
2018-07-14T12:05:39.388Z,5.70
2018-07-14T12:08:20.062Z,6.55
2018-07-14T12:11:00.586Z,6.85
2018-07-14T12:13:28.857Z,5.70
2018-07-14T12:16:09.798Z,5.78
2018-07-14T12:18:38.021Z,5.80
2018-07-14T12:21:19.128Z,6.20
2018-07-14T12:23:59.822Z,5.37
2018-07-14T12:26:40.550Z,5.50
2018-07-14T12:29:21.107Z,6.22
2018-07-14T12:32:01.722Z,5.47
2018-07-14T12:34:30.490Z,6.67
2018-07-14T12:36:59.313Z,8.38
2018-07-14T12:39:29.393Z,6.65
2018-07-14T12:42:09.649Z,6.00
2018-07-14T12:44:37.975Z,6.17
2018-07-14T12:47:06.226Z,6.62
2018-07-14T12:49:34.479Z,5.80
2018-07-14T12:52:15.619Z,7.35
2018-07-14T12:54:56.145Z,6.20
2018-07-14T12:57:24.344Z,6.80
2018-07-14T13:00:04.599Z,6.97
2018-07-14T13:02:32.738Z,6.42
2018-07-14T13:05:13.281Z,6.80
2018-07-14T13:07:53.730Z,6.45
2018-07-14T13:10:34.315Z,6.85
2018-07-14T13:13:14.949Z,7.60
2018-07-14T13:15:43.160Z,7.40
2018-07-14T13:18:23.624Z,6.45
2018-07-14T13:21:04.253Z,6.85
2018-07-14T13:23:44.794Z,7.97
2018-07-14T13:26:12.988Z,7.00
2018-07-14T13:28:41.142Z,9.43
2018-07-14T13:31:09.910Z,7.37
2018-07-14T13:33:38.668Z,8.65
2018-07-14T13:36:19.011Z,6.40
2018-07-14T13:38:51.734Z,7.03
2018-07-14T13:41:28.408Z,7.45
2018-07-14T13:43:56.585Z,7.17
2018-07-14T13:46:31.141Z,7.10
2018-07-14T13:48:59.548Z,7.95
2018-07-14T13:51:28.462Z,7.60
2018-07-14T13:53:58.652Z,7.43
2018-07-14T13:56:27.040Z,7.85
2018-07-14T13:59:07.568Z,7.78
2018-07-14T14:01:48.252Z,6.80
2018-07-14T14:04:20.435Z,7.30
2018-07-14T14:07:00.733Z,7.67
2018-07-14T14:09:30.596Z,8.20
2018-07-14T14:11:58.778Z,7.40
2018-07-14T14:14:27.058Z,8.05
2018-07-14T14:17:07.929Z,7.50
2018-07-14T14:19:38.158Z,6.80
2018-07-14T14:22:06.594Z,6.97
2018-07-14T14:24:37.538Z,6.92
2018-07-14T14:27:17.690Z,5.40
2018-07-14T14:29:58.706Z,5.25
2018-07-14T14:32:39.025Z,6.20
2018-07-14T14:35:19.753Z,17.17
2018-07-14T14:38:00.280Z,6.00
2018-07-14T14:40:40.877Z,5.40
2018-07-14T14:43:21.422Z,5.30
2018-07-14T14:46:01.927Z,4.12
2018-07-14T14:48:42.681Z,5.22
2018-07-14T14:51:23.385Z,4.90
2018-07-14T14:54:03.796Z,4.30
2018-07-14T14:56:44.409Z,4.70
2018-07-14T14:59:12.673Z,4.58
2018-07-14T15:01:53.216Z,4.60
2018-07-14T15:04:24.480Z,4.17
2018-07-14T15:06:52.740Z,3.90
2018-07-14T15:09:33.156Z,5.87
2018-07-14T15:12:13.721Z,4.50
2018-07-14T15:14:54.370Z,3.70
2018-07-14T15:17:35.098Z,3.30
2018-07-14T15:20:03.407Z,3.90
2018-07-14T15:22:31.660Z,3.60
2018-07-14T15:25:00.266Z,3.72
2018-07-14T15:27:41.459Z,4.72
2018-07-14T15:30:09.928Z,4.80
2018-07-14T15:32:41.501Z,3.47
2018-07-14T15:35:22.355Z,3.10
2018-07-14T15:37:52.102Z,3.30
2018-07-14T15:40:20.854Z,3.98
2018-07-14T15:42:50.642Z,3.00
2018-07-14T15:45:24.476Z,3.27
2018-07-14T15:47:56.771Z,5.05
2018-07-14T15:50:25.338Z,3.52
2018-07-14T15:52:53.670Z,3.50
2018-07-14T15:55:34.341Z,3.85
2018-07-14T15:58:04.592Z,3.35
2018-07-14T16:00:45.654Z,4.00
2018-07-14T16:03:26.296Z,3.98
2018-07-14T16:05:54.476Z,3.17
2018-07-14T16:08:35.795Z,2.80
2018-07-14T16:11:04.002Z,3.05
2018-07-14T16:13:32.302Z,3.70
2018-07-14T16:16:00.473Z,3.87
2018-07-14T16:18:41.023Z,3.37
2018-07-14T16:21:21.709Z,3.30
2018-07-14T16:24:02.202Z,3.40
2018-07-14T16:26:37.380Z,4.10
2018-07-14T16:29:05.677Z,3.40
2018-07-14T16:31:46.284Z,4.20
2018-07-14T16:34:26.921Z,4.20
2018-07-14T16:36:55.139Z,3.00
2018-07-14T16:39:23.448Z,3.12
2018-07-14T16:41:52.076Z,3.25
2018-07-14T16:44:20.324Z,3.58
2018-07-14T16:47:00.432Z,4.30
2018-07-14T16:49:28.851Z,3.12
2018-07-14T16:52:10.552Z,2.50
2018-07-14T16:54:38.905Z,3.50
2018-07-14T16:57:19.232Z,3.50
2018-07-14T16:59:48.043Z,2.77
2018-07-14T17:02:28.625Z,2.80
2018-07-14T17:04:56.877Z,3.00
2018-07-14T17:07:25.132Z,3.52
2018-07-14T17:09:53.331Z,2.80
2018-07-14T17:12:21.928Z,3.15
2018-07-14T17:15:02.737Z,2.80
2018-07-14T17:17:33.349Z,2.98
2018-07-14T17:20:01.664Z,3.50
2018-07-14T17:22:29.890Z,3.40
2018-07-14T17:24:58.140Z,2.80
2018-07-14T17:27:38.385Z,3.70
2018-07-14T17:30:06.686Z,3.50
2018-07-14T17:32:34.968Z,3.92
2018-07-14T17:35:05.383Z,3.25
2018-07-14T17:37:33.690Z,3.30
2018-07-14T17:40:04.622Z,4.33
2018-07-14T17:42:45.087Z,3.00
2018-07-14T17:45:25.625Z,5.42
2018-07-14T17:48:06.581Z,11.12
2018-07-14T17:50:47.012Z,4.33
2018-07-14T17:53:27.530Z,2.98
2018-07-14T17:55:55.717Z,3.47
2018-07-14T17:58:24.211Z,3.30
2018-07-14T18:01:04.893Z,3.47
2018-07-14T18:03:33.115Z,3.80
2018-07-14T18:06:01.512Z,3.70
2018-07-14T18:08:41.873Z,2.85
2018-07-14T18:11:15.653Z,3.40
2018-07-14T18:13:56.264Z,2.73
2018-07-14T18:16:26.698Z,3.20
2018-07-14T18:19:06.912Z,3.27
2018-07-14T18:21:47.538Z,3.15
2018-07-14T18:24:22.035Z,3.10
2018-07-14T18:26:53.591Z,3.40
2018-07-14T18:29:28.025Z,3.60
2018-07-14T18:32:03.306Z,3.40
2018-07-14T18:34:43.409Z,2.80
2018-07-14T18:37:24.023Z,3.50
2018-07-14T18:39:52.296Z,3.27
2018-07-14T18:42:33.402Z,3.50
2018-07-14T18:45:13.834Z,3.83
2018-07-14T18:47:42.124Z,9.93
2018-07-14T18:50:22.329Z,41.30
2018-07-14T18:53:02.728Z,4.15
2018-07-14T18:55:30.926Z,4.58
2018-07-14T18:57:59.140Z,5.10
2018-07-14T19:00:27.335Z,5.10
2018-07-14T19:03:07.782Z,3.90
2018-07-14T19:05:48.300Z,23.30
2018-07-14T19:08:16.560Z,3.70
2018-07-14T19:10:56.912Z,3.52
2018-07-14T19:13:27.328Z,3.50
2018-07-14T19:16:07.464Z,3.70
2018-07-14T19:18:35.924Z,4.80
2018-07-14T19:21:16.752Z,4.35
2018-07-14T19:23:57.249Z,3.77
2018-07-14T19:26:37.954Z,3.60
2018-07-14T19:29:18.456Z,3.90
2018-07-14T19:31:46.882Z,3.62
2018-07-14T19:34:15.224Z,3.40
2018-07-14T19:36:48.627Z,4.10
2018-07-14T19:39:16.806Z,3.40
2018-07-14T19:41:57.813Z,4.90
2018-07-14T19:44:26.055Z,4.25
2018-07-14T19:47:00.084Z,4.30
2018-07-14T19:49:29.992Z,4.20
2018-07-14T19:52:02.747Z,4.12
2018-07-14T19:54:43.148Z,3.60
2018-07-14T19:57:11.399Z,3.92
2018-07-14T19:59:51.665Z,4.80
2018-07-14T20:02:19.893Z,3.85
2018-07-14T20:04:59.989Z,4.30
2018-07-14T20:07:28.321Z,4.50
2018-07-14T20:09:56.497Z,4.75
2018-07-14T20:12:26.222Z,4.70
2018-07-14T20:14:58.161Z,4.60
2018-07-14T20:17:26.367Z,6.17
2018-07-14T20:19:55.164Z,4.55
2018-07-14T20:22:25.063Z,4.00
2018-07-14T20:25:00.747Z,4.17
2018-07-14T20:27:29.013Z,4.80
2018-07-14T20:30:09.302Z,4.78
2018-07-14T20:32:38.815Z,4.37
2018-07-14T20:35:19.730Z,4.17
2018-07-14T20:37:48.095Z,4.75
2018-07-14T20:40:28.357Z,5.53
2018-07-14T20:42:58.521Z,5.42
2018-07-14T20:45:38.786Z,4.70
2018-07-14T20:48:19.512Z,4.72
2018-07-14T20:51:00.367Z,4.77
2018-07-14T20:53:41.098Z,4.20
2018-07-14T20:56:09.408Z,4.92
2018-07-14T20:58:50.409Z,4.37
2018-07-14T21:01:18.686Z,5.05
2018-07-14T21:03:58.766Z,4.92
2018-07-14T21:06:39.256Z,5.75
2018-07-14T21:09:07.798Z,4.67
2018-07-14T21:11:48.902Z,4.20
2018-07-14T21:14:17.754Z,4.75
2018-07-14T21:16:45.963Z,4.10
2018-07-14T21:19:26.958Z,4.08
2018-07-14T21:21:55.170Z,4.65
2018-07-14T21:24:23.499Z,4.85
2018-07-14T21:27:04.387Z,7.12
2018-07-14T21:29:32.605Z,6.05
2018-07-14T21:32:13.633Z,4.40
2018-07-14T21:34:54.263Z,4.50
2018-07-14T21:37:34.890Z,4.40
2018-07-14T21:40:03.143Z,4.87
2018-07-14T21:42:31.415Z,4.70
2018-07-14T21:45:12.309Z,4.35
2018-07-14T21:47:52.921Z,4.25
2018-07-14T21:50:21.180Z,3.55
2018-07-14T21:53:01.290Z,4.95
2018-07-14T21:55:41.891Z,3.60
2018-07-14T21:58:22.384Z,4.60
2018-07-14T22:01:08.357Z,5.55
2018-07-14T22:03:36.629Z,5.08
2018-07-14T22:06:18.389Z,3.98
2018-07-14T22:08:46.592Z,4.62
2018-07-14T22:11:27.395Z,4.62
2018-07-14T22:14:07.996Z,4.40
2018-07-14T22:16:48.738Z,5.12
2018-07-14T22:19:29.348Z,4.35
2018-07-14T22:22:10.014Z,4.10
2018-07-14T22:24:38.232Z,4.15
2018-07-14T22:27:18.376Z,3.60
2018-07-14T22:29:58.960Z,4.33
2018-07-14T22:32:30.386Z,4.28
2018-07-14T22:35:04.649Z,4.00
2018-07-14T22:37:33.487Z,3.87
2018-07-14T22:40:14.026Z,4.65
2018-07-14T22:42:54.704Z,4.30
2018-07-14T22:45:22.957Z,4.10
2018-07-14T22:48:04.066Z,4.70
2018-07-14T22:50:44.673Z,3.98
2018-07-14T22:53:25.297Z,4.10
2018-07-14T22:56:05.950Z,4.00
2018-07-14T22:58:46.459Z,6.07
2018-07-14T23:01:27.275Z,4.50
2018-07-14T23:04:07.968Z,3.72
2018-07-14T23:06:36.434Z,3.70
2018-07-14T23:09:06.752Z,3.60
2018-07-14T23:11:47.133Z,4.50
2018-07-14T23:14:15.456Z,3.50
2018-07-14T23:16:55.749Z,3.65
2018-07-14T23:19:36.491Z,3.50
2018-07-14T23:22:17.130Z,3.60
2018-07-14T23:24:57.705Z,3.87
2018-07-14T23:27:25.894Z,4.40
2018-07-14T23:29:55.195Z,4.00
2018-07-14T23:32:35.922Z,3.95
2018-07-14T23:35:16.613Z,4.80
2018-07-14T23:37:57.445Z,7.00
2018-07-14T23:40:38.175Z,4.10
2018-07-14T23:43:18.965Z,3.20
2018-07-14T23:45:59.634Z,3.55
2018-07-14T23:48:27.864Z,3.55
2018-07-14T23:51:08.262Z,3.30
2018-07-14T23:53:48.655Z,3.12
2018-07-14T23:56:16.921Z,4.00
2018-07-14T23:58:57.005Z,3.65
